Virtual Cathay Airport Information Service

Tokyo Narita International Airport

ICAO: RJAA Country: Japan
Latitude: 35.7647 Longitude: 140.386
Latest Arrival : CPAJUMP (RJTT-RJAA) Latest Departure : CPA521 (RJAA-VHHH)


WX CaptureLIVE
Data provided by noaa.gov | Fetched at 18:02:42

METAR : RJAA 200930Z 26004KT 230V290 9999 FEW030 19/10 Q1014 NOSIG RMK 1CU030 A2995

TAF : RJAA 200505Z 2006/2112 18008KT 9999 FEW030 BECMG 2010/2012 36006KT BECMG 2103/2106 14005KT BECMG 2109/2112 36005KT


Runway Data for RJAA
Data provided by openaviationdata.com

Runway ID Mag Var Hdg Length Elevation Surface ILS Freq ILS Id ILS Slope
16L -7 156° 8202 ft 135 ft Asphalt 110.7 ITM 3
16R -7 156° 13132 ft 135 ft Asphalt 111.5 IKF 3
34L -7 336° 13132 ft 135 ft Asphalt 111.9 IYQ 3
34R -7 336° 8202 ft 135 ft Asphalt 110.9 ITJ 3

Tokyo Narita International Airport, Japan
Use only for reference purposes



Not for navigational purposes.